Longview, North Carolina
Current Conditions -  °F | °C
As of 10:53 AM on Friday 21 Nov 2014 (Local Time) from KHKY Reporting Station
Clear Clear  
Wind Chill: 45°   Ceiling: Unl
Heat Index: 45°   Visibility: 10mi
Dew Point: 11°   Wind: 3mph
Humidity: 25%   Direction: 40°NE
Pressure: 30.4"   Gusts: NA
Location:  35.6584°N, 81.3878°W
Report Text: KHKY 211553Z AUTO 04003KT 10SM CLR 07/M12 A3040 RMK AO2 SLP287 T00721117
Loading
Personal Weather Stations






























Interactive Weather Map New forecast layout! Learn more

10-Day Weather Forecast

Advertisements
Track Severe Weather on mobile